createdAt,value
2023-04-14T00:01:29.452Z,1.20
2023-04-14T00:03:57.039Z,1.63
2023-04-14T00:06:24.299Z,1.30
2023-04-14T00:08:51.468Z,2.40
2023-04-14T00:11:18.573Z,1.70
2023-04-14T00:13:45.840Z,1.85
2023-04-14T00:16:12.996Z,1.70
2023-04-14T00:18:40.181Z,1.95
2023-04-14T00:21:07.417Z,1.70
2023-04-14T00:23:34.546Z,1.77
2023-04-14T00:26:01.685Z,2.00
2023-04-14T00:28:29.027Z,1.80
2023-04-14T00:30:56.196Z,1.77
2023-04-14T00:33:23.327Z,1.70
2023-04-14T00:35:50.495Z,1.80
2023-04-14T00:38:17.679Z,2.03
2023-04-14T00:40:45.013Z,1.80
2023-04-14T00:43:12.123Z,2.45
2023-04-14T00:45:42.212Z,2.38
2023-04-14T00:48:09.422Z,2.75
2023-04-14T00:50:36.556Z,2.10
2023-04-14T00:53:04.353Z,2.10
2023-04-14T00:55:31.572Z,2.70
2023-04-14T00:57:58.679Z,2.60
2023-04-14T01:00:26.196Z,2.35
2023-04-14T01:02:53.488Z,3.38
2023-04-14T01:05:20.894Z,3.50
2023-04-14T01:07:48.558Z,3.22
2023-04-14T01:10:15.944Z,3.90
2023-04-14T01:12:49.132Z,3.80
2023-04-14T01:15:26.066Z,3.30
2023-04-14T01:18:13.441Z,3.60
2023-04-14T01:20:43.126Z,3.42
2023-04-14T01:23:13.587Z,3.55
2023-04-14T01:25:58.600Z,3.38
2023-04-14T01:28:28.535Z,3.83
2023-04-14T01:34:23.043Z,4.55
2023-04-14T01:39:20.302Z,4.70
2023-04-14T01:41:49.148Z,4.20
2023-04-14T01:44:19.350Z,4.35
2023-04-14T01:46:47.868Z,4.47
2023-04-14T01:49:15.395Z,4.10
2023-04-14T01:51:43.649Z,3.10
2023-04-14T01:54:12.222Z,3.60
2023-04-14T01:56:40.535Z,3.40
2023-04-14T01:59:09.117Z,3.97
2023-04-14T02:01:36.993Z,4.55
2023-04-14T02:04:04.825Z,4.30
2023-04-14T02:06:33.473Z,4.68
2023-04-14T02:09:02.726Z,4.82
2023-04-14T02:11:31.483Z,4.45
2023-04-14T02:13:58.974Z,5.32
2023-04-14T02:16:26.200Z,4.90
2023-04-14T02:18:53.513Z,5.15
2023-04-14T02:21:21.260Z,5.22
2023-04-14T02:23:48.425Z,4.93
2023-04-14T02:26:16.659Z,4.95
2023-04-14T02:28:51.248Z,4.97
2023-04-14T02:31:23.819Z,5.05
2023-04-14T02:33:55.862Z,4.78
2023-04-14T02:36:24.927Z,5.00
2023-04-14T02:39:07.226Z,4.45
2023-04-14T02:41:35.757Z,4.53
2023-04-14T02:44:16.575Z,4.25
2023-04-14T02:46:46.897Z,4.70
2023-04-14T02:49:15.815Z,4.97
2023-04-14T02:51:44.576Z,5.13
2023-04-14T02:54:12.096Z,5.07
2023-04-14T02:56:39.384Z,4.82
2023-04-14T02:59:07.228Z,5.03
2023-04-14T03:01:35.050Z,4.93
2023-04-14T03:04:02.848Z,5.03
2023-04-14T03:06:31.621Z,4.95
2023-04-14T03:09:00.392Z,5.38
2023-04-14T03:11:28.226Z,5.90
2023-04-14T03:13:57.241Z,5.38
2023-04-14T03:16:24.663Z,5.47
2023-04-14T03:18:54.463Z,5.60
2023-04-14T03:21:22.002Z,5.40
2023-04-14T03:23:52.838Z,6.25
2023-04-14T03:26:21.403Z,5.55
2023-04-14T03:28:48.882Z,5.80
2023-04-14T03:31:19.012Z,5.88
2023-04-14T03:33:47.961Z,5.90
2023-04-14T03:36:16.192Z,5.72
2023-04-14T03:38:44.853Z,5.75
2023-04-14T03:41:12.726Z,6.10
2023-04-14T03:43:40.029Z,5.75
2023-04-14T03:46:07.587Z,6.13
2023-04-14T03:48:36.768Z,5.90
2023-04-14T03:51:05.016Z,5.93
2023-04-14T03:53:34.489Z,5.55
2023-04-14T03:56:02.953Z,5.60
2023-04-14T03:58:32.082Z,5.40
2023-04-14T04:00:59.748Z,5.40
2023-04-14T04:03:27.631Z,6.00
2023-04-14T04:05:55.333Z,5.50
2023-04-14T04:08:23.878Z,5.25
2023-04-14T04:10:52.157Z,5.43
2023-04-14T04:13:20.013Z,5.50
2023-04-14T04:15:48.197Z,4.70
2023-04-14T04:18:16.451Z,5.45
2023-04-14T04:20:43.976Z,5.53
2023-04-14T04:23:11.786Z,5.43
2023-04-14T04:25:40.487Z,5.80
2023-04-14T04:28:07.919Z,5.32
2023-04-14T04:30:39.521Z,5.78
2023-04-14T04:33:07.798Z,5.68
2023-04-14T04:35:36.154Z,4.85
2023-04-14T04:38:05.108Z,5.55
2023-04-14T04:40:38.652Z,5.30
2023-04-14T04:43:06.251Z,5.22
2023-04-14T04:45:45.933Z,6.40
2023-04-14T04:48:13.367Z,5.43
2023-04-14T04:50:41.882Z,5.28
2023-04-14T04:53:09.013Z,5.65
2023-04-14T04:55:36.341Z,5.25
2023-04-14T04:58:03.479Z,5.47
2023-04-14T05:00:30.830Z,4.85
2023-04-14T05:02:58.196Z,5.05
2023-04-14T05:05:25.391Z,5.25
2023-04-14T05:07:52.584Z,4.60
2023-04-14T05:10:19.775Z,4.78
2023-04-14T05:12:47.259Z,5.28
2023-04-14T05:15:14.462Z,4.75
2023-04-14T05:17:41.653Z,4.80
2023-04-14T05:20:09.006Z,4.80
2023-04-14T05:22:36.128Z,3.30
2023-04-14T05:25:04.228Z,4.35
2023-04-14T05:27:32.448Z,4.25
2023-04-14T05:29:59.566Z,4.93
2023-04-14T05:32:28.986Z,4.03
2023-04-14T05:34:57.762Z,4.40
2023-04-14T05:37:24.944Z,4.30
2023-04-14T05:39:52.042Z,3.90
2023-04-14T05:42:19.164Z,3.80
2023-04-14T05:44:46.419Z,3.70
2023-04-14T05:47:13.738Z,3.97
2023-04-14T05:49:41.062Z,4.15
2023-04-14T05:52:08.223Z,4.40
2023-04-14T05:54:35.483Z,3.72
2023-04-14T05:57:02.635Z,3.50
2023-04-14T05:59:29.894Z,3.40
2023-04-14T06:01:57.210Z,3.28
2023-04-14T06:04:24.527Z,3.45
2023-04-14T06:06:51.790Z,3.30
2023-04-14T06:09:18.906Z,3.58
2023-04-14T06:11:46.260Z,3.35
2023-04-14T06:14:13.516Z,3.25
2023-04-14T06:16:41.796Z,3.33
2023-04-14T06:19:09.025Z,3.50
2023-04-14T06:21:36.454Z,3.38
2023-04-14T06:24:03.665Z,3.05
2023-04-14T06:26:35.643Z,3.50
2023-04-14T06:29:03.243Z,3.25
2023-04-14T06:31:30.775Z,3.10
2023-04-14T06:33:58.317Z,3.30
2023-04-14T06:36:26.349Z,3.95
2023-04-14T06:38:54.129Z,3.45
2023-04-14T06:41:22.010Z,3.50
2023-04-14T06:43:49.881Z,3.88
2023-04-14T06:46:18.165Z,3.22
2023-04-14T06:48:45.767Z,2.90
2023-04-14T06:51:13.810Z,3.40
2023-04-14T06:53:47.072Z,3.10
2023-04-14T06:56:15.515Z,3.08
2023-04-14T06:58:42.728Z,3.30
2023-04-14T07:01:10.093Z,3.25
2023-04-14T07:03:37.705Z,3.25
2023-04-14T07:06:05.209Z,2.90
2023-04-14T07:08:33.282Z,3.20
2023-04-14T07:11:01.898Z,2.90
2023-04-14T07:13:29.496Z,2.88
2023-04-14T07:15:56.983Z,2.85
2023-04-14T07:18:24.361Z,2.40
2023-04-14T07:20:54.910Z,2.50
2023-04-14T07:23:23.504Z,2.65
2023-04-14T07:25:55.712Z,2.80
2023-04-14T07:28:27.414Z,3.17
2023-04-14T07:30:54.947Z,2.70
2023-04-14T07:33:22.587Z,2.80
2023-04-14T07:36:01.359Z,2.70
2023-04-14T07:38:29.945Z,2.95
2023-04-14T07:40:57.563Z,2.75
2023-04-14T07:43:24.766Z,2.50
2023-04-14T07:45:53.156Z,2.20
2023-04-14T07:48:21.556Z,2.03
2023-04-14T07:50:52.663Z,2.00
2023-04-14T07:53:19.877Z,1.83
2023-04-14T07:56:09.945Z,2.15
2023-04-14T07:58:37.162Z,1.83
2023-04-14T08:01:04.985Z,1.52
2023-04-14T08:03:32.246Z,2.38
2023-04-14T08:05:59.620Z,1.83
2023-04-14T08:08:26.846Z,1.80
2023-04-14T08:10:55.976Z,1.67
2023-04-14T08:13:41.849Z,1.95
2023-04-14T08:16:09.472Z,1.80
2023-04-14T08:18:37.393Z,1.50
2023-04-14T08:21:04.571Z,1.92
2023-04-14T08:23:31.871Z,2.35
2023-04-14T08:25:59.156Z,1.70
2023-04-14T08:28:26.481Z,1.92
2023-04-14T08:30:53.635Z,1.52
2023-04-14T08:33:20.832Z,1.55
2023-04-14T08:35:59.506Z,1.35
2023-04-14T08:38:27.991Z,1.20
2023-04-14T08:40:58.330Z,1.48
2023-04-14T08:43:25.785Z,1.30
2023-04-14T08:45:53.782Z,1.17
2023-04-14T08:48:22.496Z,1.83
2023-04-14T08:51:10.277Z,1.55
2023-04-14T08:53:43.872Z,1.63
2023-04-14T08:56:11.839Z,1.90
2023-04-14T08:58:39.352Z,2.22
2023-04-14T09:01:07.530Z,1.10
2023-04-14T09:07:06.993Z,1.40
2023-04-14T09:09:34.730Z,1.50
2023-04-14T09:12:03.754Z,1.02
2023-04-14T09:14:31.457Z,1.33
2023-04-14T09:16:58.681Z,1.52
2023-04-14T09:19:26.672Z,1.30
2023-04-14T09:21:54.919Z,1.25
2023-04-14T09:24:32.270Z,0.93
2023-04-14T09:26:59.772Z,1.10
2023-04-14T09:29:27.142Z,1.40
2023-04-14T09:31:54.430Z,1.10
2023-04-14T09:34:32.493Z,1.10
2023-04-14T09:37:01.052Z,1.02
2023-04-14T09:39:28.423Z,1.20
2023-04-14T09:41:55.982Z,1.00
2023-04-14T09:44:23.238Z,1.30
2023-04-14T09:47:16.511Z,1.42
2023-04-14T09:49:56.130Z,1.50
2023-04-14T09:52:23.405Z,1.55
2023-04-14T09:54:56.418Z,1.40
2023-04-14T09:57:26.879Z,1.23
2023-04-14T09:59:54.108Z,1.63
2023-04-14T10:02:26.924Z,1.77
2023-04-14T10:05:07.122Z,1.30
2023-04-14T10:07:34.492Z,1.77
2023-04-14T10:10:09.704Z,1.45
2023-04-14T10:12:37.450Z,1.90
2023-04-14T10:15:05.427Z,1.50
2023-04-14T10:17:34.192Z,1.40
2023-04-14T10:20:01.604Z,1.42
2023-04-14T10:22:29.531Z,1.45
2023-04-14T10:25:18.144Z,1.42
2023-04-14T10:27:45.888Z,1.85
2023-04-14T10:30:13.324Z,1.20
2023-04-14T10:32:41.624Z,1.58
2023-04-14T10:35:13.198Z,1.70
2023-04-14T10:37:41.426Z,1.20
2023-04-14T10:40:08.860Z,1.70
2023-04-14T10:42:54.734Z,1.30
2023-04-14T10:45:22.252Z,1.17
2023-04-14T10:47:50.830Z,1.30
2023-04-14T10:50:19.209Z,1.65
2023-04-14T10:52:50.476Z,1.20
2023-04-14T10:55:17.873Z,1.60
2023-04-14T10:57:47.171Z,1.63
2023-04-14T11:00:20.477Z,1.70
2023-04-14T11:03:00.030Z,1.45
2023-04-14T11:05:27.287Z,1.15
2023-04-14T11:07:56.242Z,1.10
2023-04-14T11:10:24.125Z,1.08
2023-04-14T11:12:58.840Z,1.08
2023-04-14T11:15:43.361Z,0.90
2023-04-14T11:18:17.408Z,1.20
2023-04-14T11:20:45.015Z,1.80
2023-04-14T11:23:19.276Z,1.30
2023-04-14T11:25:46.780Z,1.02
2023-04-14T11:28:14.001Z,0.73
2023-04-14T11:30:42.096Z,0.90
2023-04-14T11:33:09.370Z,1.15
2023-04-14T11:35:36.695Z,1.27
2023-04-14T11:38:04.189Z,1.27
2023-04-14T11:40:31.468Z,1.13
2023-04-14T11:42:59.710Z,1.25
2023-04-14T11:45:31.004Z,1.40
2023-04-14T11:48:02.783Z,1.10
2023-04-14T11:50:34.804Z,1.17
2023-04-14T11:53:03.100Z,1.10
2023-04-14T11:55:30.740Z,1.40
2023-04-14T11:57:58.196Z,1.15
2023-04-14T12:00:25.737Z,1.17
2023-04-14T12:02:53.074Z,1.00
2023-04-14T12:05:22.282Z,0.82
2023-04-14T12:07:50.420Z,0.80
2023-04-14T12:10:17.813Z,0.85
2023-04-14T12:12:45.173Z,0.80
2023-04-14T12:15:13.605Z,1.17
2023-04-14T12:20:15.832Z,1.00
2023-04-14T12:22:43.100Z,1.20
2023-04-14T12:25:13.366Z,0.93
2023-04-14T12:27:40.685Z,0.77
2023-04-14T12:30:09.565Z,1.02
2023-04-14T12:32:44.604Z,1.20
2023-04-14T12:35:12.067Z,1.13
2023-04-14T12:37:41.308Z,1.00
2023-04-14T12:40:09.298Z,0.88
2023-04-14T12:42:54.236Z,1.13
2023-04-14T12:45:22.840Z,1.25
2023-04-14T12:47:56.921Z,0.90
2023-04-14T12:50:28.637Z,1.10
2023-04-14T12:52:56.686Z,1.00
2023-04-14T12:55:25.040Z,0.90
2023-04-14T12:57:53.695Z,1.23
2023-04-14T13:00:22.256Z,0.82
2023-04-14T13:02:49.922Z,1.10
2023-04-14T13:05:17.272Z,0.70
2023-04-14T13:07:44.449Z,1.40
2023-04-14T13:10:11.843Z,0.60
2023-04-14T13:12:39.314Z,0.80
2023-04-14T13:15:07.083Z,1.00
2023-04-14T13:17:34.427Z,1.13
2023-04-14T13:20:01.766Z,1.05
2023-04-14T13:22:28.951Z,0.90
2023-04-14T13:24:58.381Z,0.95
2023-04-14T13:27:25.942Z,0.88
2023-04-14T13:29:53.384Z,0.90
2023-04-14T13:32:24.868Z,1.08
2023-04-14T13:34:52.831Z,0.98
2023-04-14T13:37:21.770Z,0.80
2023-04-14T13:39:49.115Z,0.80
2023-04-14T13:42:16.423Z,0.80
2023-04-14T13:44:44.361Z,0.90
2023-04-14T13:47:12.276Z,0.70
2023-04-14T13:49:40.237Z,0.60
2023-04-14T13:52:09.093Z,1.10
2023-04-14T13:54:36.389Z,0.80
2023-04-14T13:57:03.982Z,0.95
2023-04-14T13:59:31.837Z,0.90
2023-04-14T14:01:59.931Z,0.88
2023-04-14T14:04:27.552Z,0.95
2023-04-14T14:06:54.980Z,0.70
2023-04-14T14:09:22.076Z,0.63
2023-04-14T14:11:49.261Z,0.90
2023-04-14T14:14:16.510Z,0.88
2023-04-14T14:16:44.091Z,0.95
2023-04-14T14:19:15.718Z,0.70
2023-04-14T14:21:44.119Z,0.50
2023-04-14T14:24:12.371Z,1.20
2023-04-14T14:26:42.043Z,0.70
2023-04-14T14:29:09.271Z,0.80
2023-04-14T14:31:36.867Z,1.02
2023-04-14T14:36:46.388Z,0.82
2023-04-14T14:39:14.544Z,0.70
2023-04-14T14:41:41.766Z,0.82
2023-04-14T14:44:09.060Z,1.13
2023-04-14T14:46:45.668Z,0.93
2023-04-14T14:49:14.719Z,0.90
2023-04-14T14:51:42.071Z,0.93
2023-04-14T14:54:10.516Z,0.80
2023-04-14T14:56:38.308Z,0.82
2023-04-14T14:59:05.916Z,0.90
2023-04-14T15:01:33.779Z,1.00
2023-04-14T15:04:01.419Z,0.80
2023-04-14T15:06:28.908Z,0.80
2023-04-14T15:08:56.463Z,0.80
2023-04-14T15:11:24.465Z,0.93
2023-04-14T15:13:52.010Z,0.80
2023-04-14T15:16:19.533Z,0.80
2023-04-14T15:18:46.734Z,0.85
2023-04-14T15:21:14.040Z,1.05
2023-04-14T15:23:43.264Z,1.13
2023-04-14T15:26:10.465Z,1.15
2023-04-14T15:28:37.756Z,0.98
2023-04-14T15:31:04.933Z,0.70
2023-04-14T15:33:32.198Z,0.88
2023-04-14T15:35:59.674Z,0.90
2023-04-14T15:38:27.104Z,0.90
2023-04-14T15:40:54.743Z,0.75
2023-04-14T15:43:21.957Z,1.02
2023-04-14T15:45:49.169Z,0.70
2023-04-14T15:48:16.361Z,0.80
2023-04-14T15:50:44.673Z,0.70
2023-04-14T15:53:12.338Z,0.80
2023-04-14T15:55:58.929Z,0.80
2023-04-14T15:58:27.468Z,0.90
2023-04-14T16:03:22.067Z,1.00
2023-04-14T16:05:49.333Z,0.90
2023-04-14T16:08:16.998Z,1.10
2023-04-14T16:10:44.217Z,0.90
2023-04-14T16:13:12.240Z,0.80
2023-04-14T16:15:40.211Z,0.98
2023-04-14T16:18:07.686Z,0.98
2023-04-14T16:20:35.924Z,0.80
2023-04-14T16:23:03.153Z,0.82
2023-04-14T16:25:30.769Z,1.20
2023-04-14T16:27:57.942Z,0.82
2023-04-14T16:30:25.256Z,0.60
2023-04-14T16:32:53.019Z,0.60
2023-04-14T16:35:20.730Z,1.15
2023-04-14T16:37:47.850Z,0.80
2023-04-14T16:40:15.017Z,0.80
2023-04-14T16:42:42.152Z,0.70
2023-04-14T16:45:09.518Z,0.82
2023-04-14T16:47:36.822Z,0.90
2023-04-14T16:50:04.175Z,1.10
2023-04-14T16:52:31.790Z,1.02
2023-04-14T16:54:59.449Z,1.10
2023-04-14T16:57:27.254Z,0.80
2023-04-14T16:59:54.739Z,0.80
2023-04-14T17:02:22.807Z,0.90
2023-04-14T17:04:50.392Z,1.00
2023-04-14T17:07:17.963Z,0.93
2023-04-14T17:09:45.136Z,1.40
2023-04-14T17:12:12.318Z,1.25
2023-04-14T17:14:39.667Z,1.63
2023-04-14T17:17:07.192Z,1.80
2023-04-14T17:19:34.381Z,1.25
2023-04-14T17:22:01.848Z,1.20
2023-04-14T17:24:30.293Z,1.02
2023-04-14T17:26:57.564Z,1.33
2023-04-14T17:29:24.837Z,1.33
2023-04-14T17:31:52.318Z,1.30
2023-04-14T17:34:20.730Z,1.13
2023-04-14T17:36:47.994Z,0.85
2023-04-14T17:39:15.439Z,1.08
2023-04-14T17:41:42.596Z,0.82
2023-04-14T17:44:09.735Z,1.00
2023-04-14T17:46:36.951Z,1.10
2023-04-14T17:49:04.265Z,1.25
2023-04-14T17:51:31.946Z,1.30
2023-04-14T17:53:59.717Z,1.60
2023-04-14T17:56:27.078Z,1.48
2023-04-14T17:58:54.263Z,1.83
2023-04-14T18:01:22.079Z,1.63
2023-04-14T18:03:49.478Z,1.10
2023-04-14T18:06:16.809Z,1.38
2023-04-14T18:08:44.156Z,1.73
2023-04-14T18:11:12.721Z,1.83
2023-04-14T18:13:39.975Z,1.08
2023-04-14T18:16:08.557Z,1.20
2023-04-14T18:18:36.210Z,1.50
2023-04-14T18:21:03.451Z,1.60
2023-04-14T18:23:31.362Z,2.00
2023-04-14T18:28:32.573Z,1.40
2023-04-14T18:30:59.866Z,1.48
2023-04-14T18:33:27.713Z,1.40
2023-04-14T18:35:56.787Z,1.30
2023-04-14T18:38:24.772Z,2.70
2023-04-14T18:40:52.491Z,1.70
2023-04-14T18:43:19.784Z,2.60
2023-04-14T18:45:47.865Z,4.15
2023-04-14T18:48:15.626Z,4.20
2023-04-14T18:50:45.895Z,3.28
2023-04-14T18:53:13.356Z,2.88
2023-04-14T18:55:44.993Z,2.22
2023-04-14T18:58:13.411Z,2.20
2023-04-14T19:00:41.511Z,2.72
2023-04-14T19:03:09.182Z,3.08
2023-04-14T19:05:37.391Z,2.83
2023-04-14T19:08:05.072Z,2.85
2023-04-14T19:10:32.440Z,3.50
2023-04-14T19:12:59.683Z,12.25
2023-04-14T19:15:27.732Z,4.30
2023-04-14T19:17:55.776Z,3.72
2023-04-14T19:20:24.142Z,3.03
2023-04-14T19:22:51.434Z,3.33
2023-04-14T19:25:18.623Z,4.50
2023-04-14T19:27:46.011Z,4.28
2023-04-14T19:30:13.942Z,5.40
2023-04-14T19:32:41.946Z,2.80
2023-04-14T19:35:10.091Z,2.25
2023-04-14T19:37:38.486Z,2.40
2023-04-14T19:40:06.857Z,2.95
2023-04-14T19:42:34.246Z,2.70
2023-04-14T19:45:02.039Z,2.33
2023-04-14T19:47:29.381Z,2.10
2023-04-14T19:49:59.595Z,2.88
2023-04-14T19:52:27.379Z,3.47
2023-04-14T19:54:55.269Z,3.42
2023-04-14T19:57:23.800Z,2.92
2023-04-14T19:59:51.058Z,3.60
2023-04-14T20:02:19.028Z,2.05
2023-04-14T20:12:14.012Z,2.60
2023-04-14T20:14:41.466Z,2.10
2023-04-14T20:17:08.979Z,2.53
2023-04-14T20:19:36.966Z,3.17
2023-04-14T20:22:04.398Z,3.10
2023-04-14T20:24:31.579Z,2.50
2023-04-14T20:26:59.162Z,3.17
2023-04-14T20:29:26.551Z,4.03
2023-04-14T20:31:53.897Z,8.43
2023-04-14T20:34:21.048Z,4.20
2023-04-14T20:36:49.048Z,3.75
2023-04-14T20:39:16.172Z,4.82
2023-04-14T20:41:43.394Z,4.15
2023-04-14T20:44:10.581Z,4.13
2023-04-14T20:46:37.816Z,3.90
2023-04-14T20:49:05.091Z,3.53
2023-04-14T20:51:32.339Z,3.58
2023-04-14T20:53:59.551Z,3.63
2023-04-14T20:56:28.666Z,3.70
2023-04-14T20:58:56.200Z,3.22
2023-04-14T21:01:25.528Z,2.95
2023-04-14T21:03:52.846Z,2.70
2023-04-14T21:06:20.114Z,2.97
2023-04-14T21:08:47.557Z,3.30
2023-04-14T21:11:18.480Z,3.90
2023-04-14T21:15:29.749Z,4.18
2023-04-14T21:16:36.046Z,3.60
2023-04-14T21:19:04.328Z,3.58
2023-04-14T21:21:32.976Z,3.88
2023-04-14T21:24:00.303Z,3.30
2023-04-14T21:26:28.504Z,3.55
2023-04-14T21:28:56.526Z,3.40
2023-04-14T21:31:23.985Z,3.33
2023-04-14T21:33:51.722Z,3.30
2023-04-14T21:36:19.678Z,3.60
2023-04-14T21:38:47.187Z,3.00
2023-04-14T21:41:14.398Z,3.55
2023-04-14T21:43:41.866Z,3.80
2023-04-14T21:46:09.104Z,4.13
2023-04-14T21:49:14.632Z,5.13
2023-04-14T21:51:41.837Z,3.97
2023-04-14T21:54:08.976Z,3.95
2023-04-14T21:56:36.344Z,4.30
2023-04-14T21:59:03.838Z,4.35
2023-04-14T22:01:34.465Z,4.70
2023-04-14T22:04:01.962Z,4.28
2023-04-14T22:06:29.620Z,4.25
2023-04-14T22:08:56.929Z,3.97
2023-04-14T22:11:24.038Z,3.95
2023-04-14T22:13:51.557Z,4.82
2023-04-14T22:16:19.540Z,4.80
2023-04-14T22:18:46.689Z,4.43
2023-04-14T22:21:16.910Z,4.80
2023-04-14T22:23:44.179Z,4.60
2023-04-14T22:26:12.592Z,4.80
2023-04-14T22:28:40.032Z,4.60
2023-04-14T22:31:07.847Z,4.50
2023-04-14T22:33:35.815Z,5.15
2023-04-14T22:36:05.542Z,5.20
2023-04-14T22:38:34.010Z,4.70
2023-04-14T22:41:02.047Z,4.97
2023-04-14T22:43:30.033Z,4.78
2023-04-14T22:45:57.253Z,4.65
2023-04-14T22:48:24.413Z,5.10
2023-04-14T22:50:51.861Z,4.88
2023-04-14T22:53:18.990Z,4.63
2023-04-14T22:55:46.127Z,4.55
2023-04-14T22:58:20.223Z,4.50
2023-04-14T23:00:48.314Z,4.20
2023-04-14T23:03:15.692Z,5.20
2023-04-14T23:05:43.616Z,4.18
2023-04-14T23:08:10.876Z,4.60
2023-04-14T23:10:38.022Z,4.28
2023-04-14T23:13:05.169Z,5.38
2023-04-14T23:15:32.737Z,4.43
2023-04-14T23:17:59.993Z,4.90
2023-04-14T23:20:27.267Z,4.43
2023-04-14T23:22:55.007Z,4.25
2023-04-14T23:25:22.473Z,4.45
2023-04-14T23:27:49.830Z,4.35
2023-04-14T23:30:17.936Z,4.13
2023-04-14T23:32:45.069Z,4.97
2023-04-14T23:35:12.219Z,4.53
2023-04-14T23:37:39.436Z,4.65
2023-04-14T23:40:08.205Z,4.80
2023-04-14T23:42:35.351Z,4.40
2023-04-14T23:45:02.535Z,4.10
2023-04-14T23:47:29.743Z,4.50
2023-04-14T23:49:57.348Z,4.13
2023-04-14T23:52:24.764Z,4.70
2023-04-14T23:54:52.074Z,4.60
2023-04-14T23:57:19.370Z,4.60
2023-04-14T23:59:46.514Z,4.55
